Euro IV — IQNH — position and weather

sailwx.info

Track history (hours):
 
Tides and Currents Weather Stations Pressure Air Temp Water Temp Dewpoint Dewpoint Depression Visibility Wind Speed Wind Dir Waves Ship Positions

Euro IV

Last reported at 2015-Jul-28 12:33 UTC. Time now 2015-Jul-28 15:22 UTC.
Position N 44°06' E 009°50'.

Length 25 m; draft 1.3 m.

Type: Passenger vessel. MMSI: 247131500.

Date/timePositionNaut miles runAvg speedWind from/ knotsBaromVisibWave heightAir tempDewpointWater temp
2015-Jul-28 12:33N 44°06' E 009°50'0 0.0
2015-Jul-28 11:33N 44°06' E 009°50'0 0.0
2015-Jul-28 10:33N 44°06' E 009°50'0 0.0
2015-Jul-28 09:33N 44°06' E 009°50'0 0.0
2015-Jul-28 08:33N 44°06' E 009°50'0 0.0
2015-Jul-28 07:33N 44°06' E 009°50'0 0.0
2015-Jul-27 22:25N 44°06' E 009°50'3 3.6
2015-Jul-27 21:33N 44°03' E 009°50'0 0.0
2015-Jul-27 20:34N 44°03' E 009°50'0 0.0
2015-Jul-27 19:34N 44°03' E 009°50'0 0.5
2015-Jul-27 18:33N 44°03' E 009°51'3 3.0
2015-Jul-27 17:33N 44°06' E 009°50'0 0.0
2015-Jul-27 16:33N 44°06' E 009°50'0 0.0
2015-Jul-27 15:33N 44°06' E 009°50'0 0.0
2015-Jul-27 14:33N 44°06' E 009°50'0 0.0
2015-Jul-27 13:33N 44°06' E 009°50'0 0.0
2015-Jul-27 12:33N 44°06' E 009°50'0 0.0
2015-Jul-27 09:31N 44°06' E 009°50'3 3.5
2015-Jul-27 08:33N 44°03' E 009°51'3 0.1
2015-Jul-25 08:34N 44°06' E 009°50'0 0.0
2015-Jul-25 07:34N 44°06' E 009°50'2 0.1
2015-Jul-24 15:33N 44°05' E 009°51'6 6.1
2015-Jul-24 14:31N 44°07' E 009°43'3 3.2
2015-Jul-24 13:33N 44°09' E 009°39'4 3.7
2015-Jul-24 12:28N 44°06' E 009°44'6 6.2
2015-Jul-24 11:33N 44°03' E 009°50'8 7.8
2015-Jul-24 10:33N 44°07' E 009°41'3 2.2
2015-Jul-24 09:20N 44°06' E 009°44'2 1.8
2015-Jul-24 08:20N 44°07' E 009°42'2 2.1
2015-Jul-24 07:27N 44°06' E 009°44'4 4.5
2015-Jul-24 06:33N 44°06' E 009°50'4 0.3
2015-Jul-23 16:34N 44°03' E 009°52'4 3.5
2015-Jul-23 15:34N 44°06' E 009°50'4 3.8
2015-Jul-23 14:33N 44°02' E 009°51'1 0.9
2015-Jul-23 13:33N 44°03' E 009°52'3 3.3
2015-Jul-23 12:34N 44°06' E 009°50'0 0.1
2015-Jul-23 11:33N 44°06' E 009°50'0 0.0
2015-Jul-23 10:33N 44°06' E 009°50'0 0.0
2015-Jul-23 09:33N 44°06' E 009°50'3 2.8
2015-Jul-23 08:34N 44°04' E 009°51'0 0.3
2015-Jul-23 07:33N 44°03' E 009°52'3 3.2
2015-Jul-23 06:33N 44°06' E 009°49'0 0.0
2015-Jul-22 15:33N 44°06' E 009°50'5 5.4
2015-Jul-22 14:33N 44°06' E 009°42'1 0.9
2015-Jul-22 13:25N 44°06' E 009°43'4 4.4
2015-Jul-22 12:31N 44°09' E 009°39'0 0.0
2015-Jul-22 11:33N 44°09' E 009°39'3 3.3
2015-Jul-22 10:33N 44°06' E 009°43'3 2.5
2015-Jul-22 09:33N 44°08' E 009°40'4 3.7
2015-Jul-22 08:33N 44°06' E 009°44'8 7.8
2015-Jul-22 07:33N 44°04' E 009°55'3 2.8
2015-Jul-22 06:33N 44°06' E 009°51'1 1.2
2015-Jul-22 05:33N 44°06' E 009°49'4 0.3
2015-Jul-21 16:33N 44°03' E 009°52'4 3.5
2015-Jul-21 15:33N 44°06' E 009°50'4 3.9
2015-Jul-21 14:33N 44°02' E 009°51'1 1.2
2015-Jul-21 13:33N 44°03' E 009°51'2 2.1
2015-Jul-21 12:33N 44°05' E 009°50'1 0.8
2015-Jul-21 11:33N 44°06' E 009°50'0 0.1
2015-Jul-21 10:33N 44°06' E 009°50'0 0.0
2015-Jul-21 09:33N 44°06' E 009°50'0 0.5
2015-Jul-21 08:33N 44°06' E 009°50'1 1.0
2015-Jul-21 07:34N 44°05' E 009°50'1 0.1
2015-Jul-20 16:14N 44°06' E 009°49'3 4.5
2015-Jul-20 15:33N 44°03' E 009°50'7 7.2
2015-Jul-20 14:33N 44°07' E 009°42'2 0.7
2015-Jul-20 11:23N 44°09' E 009°39'0 0.0
2015-Jul-20 10:33N 44°09' E 009°39'4 2.1
2015-Jul-20 08:33N 44°06' E 009°44'2 1.8
2015-Jul-20 07:33N 44°07' E 009°42'7 7.2
2015-Jul-20 06:33N 44°04' E 009°51'2 0.1
2015-Jul-19 16:33N 44°06' E 009°50'3 3.0
2015-Jul-19 15:33N 44°03' E 009°50'6 5.8
2015-Jul-19 14:32N 44°06' E 009°43'4 3.8
2015-Jul-19 13:33N 44°09' E 009°39'4 3.9
2015-Jul-19 12:32N 44°06' E 009°43'1 0.8
2015-Jul-19 11:34N 44°05' E 009°43'1 0.9
2015-Jul-19 10:33N 44°06' E 009°42'1 0.6
2015-Jul-19 09:32N 44°07' E 009°43'1 1.1
2015-Jul-19 08:33N 44°06' E 009°44'3 3.1
2015-Jul-19 07:33N 44°08' E 009°40'9 8.5
2015-Jul-19 06:33N 44°03' E 009°50'3 0.2
2015-Jul-18 17:18N 44°06' E 009°50'3 4.6
2015-Jul-18 16:33N 44°03' E 009°51'0 0.2
2015-Jul-18 15:33N 44°03' E 009°51'0 0.0
2015-Jul-18 14:33N 44°03' E 009°51'0 0.0
2015-Jul-18 13:33N 44°03' E 009°51'2 1.6
2015-Jul-18 12:34N 44°05' E 009°51'  
Track history (hours):
 
Tides and Currents Weather Stations Pressure Air Temp Water Temp Dewpoint Dewpoint Depression Visibility Wind Speed Wind Dir Waves Ship Positions

Euro IV

Last reported at 2015-Jul-28 12:33 UTC. Time now 2015-Jul-28 15:22 UTC.
Position N 44°06' E 009°50'.

Length 25 m; draft 1.3 m.

Type: Passenger vessel. MMSI: 247131500.

Date/timePositionNaut miles runAvg speedWind from/ knotsBaromVisibWave heightAir tempDewpointWater temp
2015-Jul-28 12:33N 44°06' E 009°50'0 0.0
2015-Jul-28 11:33N 44°06' E 009°50'0 0.0
2015-Jul-28 10:33N 44°06' E 009°50'0 0.0
2015-Jul-28 09:33N 44°06' E 009°50'0 0.0
2015-Jul-28 08:33N 44°06' E 009°50'0 0.0
2015-Jul-28 07:33N 44°06' E 009°50'0 0.0
2015-Jul-27 22:25N 44°06' E 009°50'3 3.6
2015-Jul-27 21:33N 44°03' E 009°50'0 0.0
2015-Jul-27 20:34N 44°03' E 009°50'0 0.0
2015-Jul-27 19:34N 44°03' E 009°50'0 0.5
2015-Jul-27 18:33N 44°03' E 009°51'3 3.0
2015-Jul-27 17:33N 44°06' E 009°50'0 0.0
2015-Jul-27 16:33N 44°06' E 009°50'0 0.0
2015-Jul-27 15:33N 44°06' E 009°50'0 0.0
2015-Jul-27 14:33N 44°06' E 009°50'0 0.0
2015-Jul-27 13:33N 44°06' E 009°50'0 0.0
2015-Jul-27 12:33N 44°06' E 009°50'0 0.0
2015-Jul-27 09:31N 44°06' E 009°50'3 3.5
2015-Jul-27 08:33N 44°03' E 009°51'3 0.1
2015-Jul-25 08:34N 44°06' E 009°50'0 0.0
2015-Jul-25 07:34N 44°06' E 009°50'2 0.1
2015-Jul-24 15:33N 44°05' E 009°51'6 6.1
2015-Jul-24 14:31N 44°07' E 009°43'3 3.2
2015-Jul-24 13:33N 44°09' E 009°39'4 3.7
2015-Jul-24 12:28N 44°06' E 009°44'6 6.2
2015-Jul-24 11:33N 44°03' E 009°50'8 7.8
2015-Jul-24 10:33N 44°07' E 009°41'3 2.2
2015-Jul-24 09:20N 44°06' E 009°44'2 1.8
2015-Jul-24 08:20N 44°07' E 009°42'2 2.1
2015-Jul-24 07:27N 44°06' E 009°44'4 4.5
2015-Jul-24 06:33N 44°06' E 009°50'4 0.3
2015-Jul-23 16:34N 44°03' E 009°52'4 3.5
2015-Jul-23 15:34N 44°06' E 009°50'4 3.8
2015-Jul-23 14:33N 44°02' E 009°51'1 0.9
2015-Jul-23 13:33N 44°03' E 009°52'3 3.3
2015-Jul-23 12:34N 44°06' E 009°50'0 0.1
2015-Jul-23 11:33N 44°06' E 009°50'0 0.0
2015-Jul-23 10:33N 44°06' E 009°50'0 0.0
2015-Jul-23 09:33N 44°06' E 009°50'3 2.8
2015-Jul-23 08:34N 44°04' E 009°51'0 0.3
2015-Jul-23 07:33N 44°03' E 009°52'3 3.2
2015-Jul-23 06:33N 44°06' E 009°49'0 0.0
2015-Jul-22 15:33N 44°06' E 009°50'5 5.4
2015-Jul-22 14:33N 44°06' E 009°42'1 0.9
2015-Jul-22 13:25N 44°06' E 009°43'4 4.4
2015-Jul-22 12:31N 44°09' E 009°39'0 0.0
2015-Jul-22 11:33N 44°09' E 009°39'3 3.3
2015-Jul-22 10:33N 44°06' E 009°43'3 2.5
2015-Jul-22 09:33N 44°08' E 009°40'4 3.7
2015-Jul-22 08:33N 44°06' E 009°44'8 7.8
2015-Jul-22 07:33N 44°04' E 009°55'3 2.8
2015-Jul-22 06:33N 44°06' E 009°51'1 1.2
2015-Jul-22 05:33N 44°06' E 009°49'4 0.3
2015-Jul-21 16:33N 44°03' E 009°52'4 3.5
2015-Jul-21 15:33N 44°06' E 009°50'4 3.9
2015-Jul-21 14:33N 44°02' E 009°51'1 1.2
2015-Jul-21 13:33N 44°03' E 009°51'2 2.1
2015-Jul-21 12:33N 44°05' E 009°50'1 0.8
2015-Jul-21 11:33N 44°06' E 009°50'0 0.1
2015-Jul-21 10:33N 44°06' E 009°50'0 0.0
2015-Jul-21 09:33N 44°06' E 009°50'0 0.5
2015-Jul-21 08:33N 44°06' E 009°50'1 1.0
2015-Jul-21 07:34N 44°05' E 009°50'1 0.1
2015-Jul-20 16:14N 44°06' E 009°49'3 4.5
2015-Jul-20 15:33N 44°03' E 009°50'7 7.2
2015-Jul-20 14:33N 44°07' E 009°42'2 0.7
2015-Jul-20 11:23N 44°09' E 009°39'0 0.0
2015-Jul-20 10:33N 44°09' E 009°39'4 2.1
2015-Jul-20 08:33N 44°06' E 009°44'2 1.8
2015-Jul-20 07:33N 44°07' E 009°42'7 7.2
2015-Jul-20 06:33N 44°04' E 009°51'2 0.1
2015-Jul-19 16:33N 44°06' E 009°50'3 3.0
2015-Jul-19 15:33N 44°03' E 009°50'6 5.8
2015-Jul-19 14:32N 44°06' E 009°43'4 3.8
2015-Jul-19 13:33N 44°09' E 009°39'4 3.9
2015-Jul-19 12:32N 44°06' E 009°43'1 0.8
2015-Jul-19 11:34N 44°05' E 009°43'1 0.9
2015-Jul-19 10:33N 44°06' E 009°42'1 0.6
2015-Jul-19 09:32N 44°07' E 009°43'1 1.1
2015-Jul-19 08:33N 44°06' E 009°44'3 3.1
2015-Jul-19 07:33N 44°08' E 009°40'9 8.5
2015-Jul-19 06:33N 44°03' E 009°50'3 0.2
2015-Jul-18 17:18N 44°06' E 009°50'3 4.6
2015-Jul-18 16:33N 44°03' E 009°51'0 0.2
2015-Jul-18 15:33N 44°03' E 009°51'0 0.0
2015-Jul-18 14:33N 44°03' E 009°51'0 0.0
2015-Jul-18 13:33N 44°03' E 009°51'2 1.6
2015-Jul-18 12:34N 44°05' E 009°51'  

Dump ship's entire track history